Time;durP1;ratioP1;P1;durP2;ratioP2;P2;SDS_P1;SDS_P2;PMS_P1;PMS_P2;Temp;Humidity;BMP_temperature;BMP_pressure;BME280_temperature;BME280_humidity;BME280_pressure;Samples;Min_cycle;Max_cycle;Signal;HPM_P1;HPM_P2
2022/03/30 00:01:29;;;;;;;;;;;;;;;10.87;42.55;96827.53;12805223;23;19927;-76
2022/03/30 00:06:49;;;;;;;;;;;;;;;10.91;42.72;96815.16;12785705;23;20228;-76
2022/03/30 00:12:10;;;;;;;;;;;;;;;10.88;42.63;96822.69;12784468;23;20228;-76
2022/03/30 00:17:31;;;;;;;;;;;;;;;10.81;42.83;96823.72;12805677;23;19928;-76
2022/03/30 00:22:51;;;;;;;;;;;;;;;10.87;42.92;96818.44;12804960;23;19920;-75
2022/03/30 00:28:12;;;;;;;;;;;;;;;10.84;43.06;96805.72;12825872;23;19921;-76
2022/03/30 00:33:33;;;;;;;;;;;;;;;10.81;42.94;96795.81;12762206;23;19975;-76
2022/03/30 00:38:53;;;;;;;;;;;;;;;10.71;43.08;96793.22;12804636;23;20310;-76
2022/03/30 00:44:17;;;;;;;;;;;;;;;10.58;43.03;96780.69;12762524;23;20186;-76
2022/03/30 00:49:43;;;;;;;;;;;;;;;10.49;43.55;96784.41;12802289;23;19928;-75
2022/03/30 00:55:04;;;;;;;;;;;;;;;10.42;43.88;96784.69;12803616;23;19920;-76
2022/03/30 01:00:25;;;;;;;;;;;;;;;10.42;44.15;96784.69;12762151;23;19931;-76
2022/03/30 01:05:45;;;;;;;;;;;;;;;10.43;44.08;96769.44;12767400;23;19928;-76
2022/03/30 01:11:07;;;;;;;;;;;;;;;10.40;44.52;96776.94;12802566;23;20000;-76
2022/03/30 01:16:28;;;;;;;;;;;;;;;10.38;44.53;96768.47;12782746;23;19920;-75
2022/03/30 01:21:49;;;;;;;;;;;;;;;10.30;44.84;96762.47;12782572;23;19920;-75
2022/03/30 01:27:10;;;;;;;;;;;;;;;10.34;44.70;96761.97;12803381;23;19927;-75
2022/03/30 01:32:31;;;;;;;;;;;;;;;10.40;44.46;96765.06;12802141;23;19943;-77
2022/03/30 01:37:52;;;;;;;;;;;;;;;10.36;44.74;96762.78;12803424;23;19924;-76
2022/03/30 01:43:13;;;;;;;;;;;;;;;10.40;44.69;96760.22;12802195;23;19920;-76
2022/03/30 01:48:33;;;;;;;;;;;;;;;10.41;44.56;96750.50;12803063;23;19920;-76
2022/03/30 01:53:54;;;;;;;;;;;;;;;10.47;44.76;96741.72;12700490;23;19925;-75
2022/03/30 01:59:14;;;;;;;;;;;;;;;10.57;44.51;96748.56;12741065;23;19924;-76
2022/03/30 02:04:36;;;;;;;;;;;;;;;10.57;44.60;96729.00;12730801;23;20279;-76
2022/03/30 02:09:57;;;;;;;;;;;;;;;10.54;45.09;96730.25;12741324;23;19920;-76
2022/03/30 02:15:18;;;;;;;;;;;;;;;10.51;45.09;96725.91;12721072;23;19988;-76
2022/03/30 02:20:40;;;;;;;;;;;;;;;10.48;45.39;96720.84;12740504;23;19927;-76
2022/03/30 02:26:00;;;;;;;;;;;;;;;10.47;45.68;96720.13;12741049;23;19988;-76
2022/03/30 02:31:21;;;;;;;;;;;;;;;10.45;45.15;96711.66;12740367;23;19928;-76
2022/03/30 02:36:43;;;;;;;;;;;;;;;10.41;46.18;96703.06;12740341;23;19920;-76
2022/03/30 02:42:07;;;;;;;;;;;;;;;10.40;46.34;96703.69;12760758;23;20251;-76
2022/03/30 02:53:07;;;;;;;;;;;;;;;10.38;46.86;96681.28;12763173;23;19931;-75
2022/03/30 02:58:28;;;;;;;;;;;;;;;10.32;45.82;96670.53;12800200;23;20389;-75
2022/03/30 03:03:49;;;;;;;;;;;;;;;10.25;46.52;96677.16;12780737;23;20106;-75
2022/03/30 03:09:10;;;;;;;;;;;;;;;10.24;46.59;96664.56;12759137;23;19984;-76
2022/03/30 03:14:30;;;;;;;;;;;;;;;10.14;46.32;96661.94;12779356;23;19920;-77
2022/03/30 03:19:53;;;;;;;;;;;;;;;10.19;46.54;96668.44;12802435;23;19920;-76
2022/03/30 03:25:14;;;;;;;;;;;;;;;10.19;46.61;96662.84;12801443;23;19927;-76
2022/03/30 03:30:34;;;;;;;;;;;;;;;10.18;46.76;96644.69;12760555;23;19947;-76
2022/03/30 03:35:55;;;;;;;;;;;;;;;10.18;46.45;96644.69;12801435;23;20278;-76
2022/03/30 03:41:16;;;;;;;;;;;;;;;10.17;47.28;96632.09;12823224;23;19920;-77
2022/03/30 03:46:37;;;;;;;;;;;;;;;10.18;45.87;96633.53;12779929;23;19924;-76
2022/03/30 03:51:58;;;;;;;;;;;;;;;10.15;46.65;96629.19;12787083;23;19920;-76
2022/03/30 03:57:19;;;;;;;;;;;;;;;10.14;46.54;96622.19;12779422;23;20002;-76
2022/03/30 04:02:40;;;;;;;;;;;;;;;10.03;46.40;96616.06;12775363;23;19920;-76
2022/03/30 04:08:01;;;;;;;;;;;;;;;9.96;46.53;96613.59;12758962;23;20346;-76
2022/03/30 04:13:21;;;;;;;;;;;;;;;9.95;46.36;96615.66;12778595;23;19920;-76
2022/03/30 04:18:43;;;;;;;;;;;;;;;9.89;46.56;96606.97;12821761;23;19921;-76
2022/03/30 04:24:05;;;;;;;;;;;;;;;9.88;46.77;96605.53;12800442;23;19936;-76
2022/03/30 04:29:25;;;;;;;;;;;;;;;9.68;46.80;96613.56;12779246;23;19920;-75
2022/03/30 04:34:46;;;;;;;;;;;;;;;9.77;46.74;96605.63;12821732;23;19971;-76
2022/03/30 04:40:10;;;;;;;;;;;;;;;9.83;47.16;96611.50;12780217;23;19927;-76
2022/03/30 04:45:31;;;;;;;;;;;;;;;9.82;46.92;96599.63;12780824;23;19927;-76
2022/03/30 04:50:52;;;;;;;;;;;;;;;9.83;46.99;96601.06;12796970;23;19927;-76
2022/03/30 04:56:13;;;;;;;;;;;;;;;9.68;47.42;96594.06;12825470;23;19920;-76
2022/03/30 05:01:33;;;;;;;;;;;;;;;9.58;47.41;96593.53;12782588;23;20362;-76
2022/03/30 05:06:54;;;;;;;;;;;;;;;9.44;48.29;96596.25;12784462;23;19967;-75
2022/03/30 05:12:14;;;;;;;;;;;;;;;9.42;49.05;96596.16;12802861;23;19927;-75
2022/03/30 05:17:39;;;;;;;;;;;;;;;9.42;49.27;96598.94;12803630;23;19924;-76
2022/03/30 05:22:59;;;;;;;;;;;;;;;9.46;49.21;96601.97;12783191;23;19920;-76
2022/03/30 05:28:20;;;;;;;;;;;;;;;9.53;49.09;96605.78;12782950;23;19944;-76
2022/03/30 05:33:41;;;;;;;;;;;;;;;9.45;49.65;96608.84;12803716;23;20332;-76
2022/03/30 05:39:02;;;;;;;;;;;;;;;9.63;50.25;96611.88;12825347;23;19924;-76
2022/03/30 05:44:22;;;;;;;;;;;;;;;9.71;49.97;96608.81;12782923;23;19920;-75
2022/03/30 05:49:43;;;;;;;;;;;;;;;9.82;49.15;96599.63;12779516;23;19967;-76
2022/03/30 05:55:04;;;;;;;;;;;;;;;9.88;49.27;96608.31;12804009;23;19977;-76
2022/03/30 06:00:24;;;;;;;;;;;;;;;9.88;49.42;96619.47;12782327;23;20308;-75
2022/03/30 06:05:45;;;;;;;;;;;;;;;9.95;49.25;96612.88;12788268;23;19931;-76
2022/03/30 06:11:06;;;;;;;;;;;;;;;9.95;49.45;96607.28;12802544;23;19974;-76
2022/03/30 06:16:26;;;;;;;;;;;;;;;10.05;49.45;96609.88;12782277;23;19935;-76
2022/03/30 06:21:48;;;;;;;;;;;;;;;10.11;49.90;96607.38;12781555;23;19970;-75
2022/03/30 06:27:09;;;;;;;;;;;;;;;10.16;49.90;96611.13;12782657;23;19986;-76
2022/03/30 06:32:29;;;;;;;;;;;;;;;10.12;51.18;96606.03;12803463;23;19928;-76
2022/03/30 06:37:50;;;;;;;;;;;;;;;10.02;50.86;96611.81;12803137;23;19920;-76
2022/03/30 06:43:10;;;;;;;;;;;;;;;9.91;52.10;96595.91;12802363;23;19927;-75
2022/03/30 06:48:32;;;;;;;;;;;;;;;9.87;52.04;96598.50;12801396;23;19920;-75
2022/03/30 06:53:53;;;;;;;;;;;;;;;9.63;52.42;96600.00;12781332;23;19928;-76
2022/03/30 06:59:14;;;;;;;;;;;;;;;9.45;52.37;96592.13;12802179;23;19927;-76
2022/03/30 07:04:35;;;;;;;;;;;;;;;9.61;52.74;96581.13;12771792;23;19920;-76
2022/03/30 07:10:15;;;;;;;;;;;;;;;9.66;53.11;96587.66;12759004;23;20324;-76
2022/03/30 07:15:36;;;;;;;;;;;;;;;9.63;53.04;96589.59;12803154;23;19924;-76
2022/03/30 07:20:56;;;;;;;;;;;;;;;9.59;53.04;96588.66;12822911;23;19931;-76
2022/03/30 07:26:17;;;;;;;;;;;;;;;9.63;54.71;96583.31;12779742;23;19920;-75
2022/03/30 07:31:43;;;;;;;;;;;;;;;9.56;55.11;96585.06;12780987;23;20238;-75
2022/03/30 07:37:07;;;;;;;;;;;;;;;9.63;55.13;96580.50;12780456;23;19924;-75
2022/03/30 07:42:28;;;;;;;;;;;;;;;9.66;55.19;96576.50;12800195;23;19920;-75
2022/03/30 07:47:49;;;;;;;;;;;;;;;9.72;56.02;96579.59;12779669;23;19921;-76
2022/03/30 07:53:10;;;;;;;;;;;;;;;9.69;54.88;96586.41;12764976;23;19966;-78
2022/03/30 07:58:32;;;;;;;;;;;;;;;9.68;55.73;96576.63;12762434;23;19920;-78
2022/03/30 08:03:53;;;;;;;;;;;;;;;9.57;55.81;96580.22;12784912;23;19920;-83
2022/03/30 08:09:14;;;;;;;;;;;;;;;9.43;56.88;96580.16;12836524;23;19991;-84
2022/03/30 08:14:35;;;;;;;;;;;;;;;9.51;56.90;96577.09;12853092;23;19999;-75
2022/03/30 08:19:57;;;;;;;;;;;;;;;9.61;57.06;96583.19;12800658;23;19970;-75
2022/03/30 08:25:17;;;;;;;;;;;;;;;9.63;54.13;96584.03;12782958;23;19920;-75
2022/03/30 08:30:38;;;;;;;;;;;;;;;9.56;53.99;96576.69;12803971;23;19927;-76
2022/03/30 08:35:59;;;;;;;;;;;;;;;9.49;54.24;96580.50;12804235;23;20338;-76
2022/03/30 08:41:19;;;;;;;;;;;;;;;9.69;54.88;96569.69;12783619;23;19928;-76
2022/03/30 08:46:40;;;;;;;;;;;;;;;9.83;55.12;96573.19;12803960;23;19975;-76
2022/03/30 08:52:05;;;;;;;;;;;;;;;9.87;54.41;96561.56;12764381;23;20058;-76
2022/03/30 08:57:25;;;;;;;;;;;;;;;9.89;54.01;96565.16;12792840;23;20220;-77
2022/03/30 09:02:49;;;;;;;;;;;;;;;9.80;55.16;96554.94;12805136;23;19920;-77
2022/03/30 09:08:19;;;;;;;;;;;;;;;9.70;54.84;96548.84;12806570;23;19927;-76
2022/03/30 09:13:40;;;;;;;;;;;;;;;9.78;56.14;96538.13;12766122;23;19921;-77
2022/03/30 09:19:02;;;;;;;;;;;;;;;9.97;55.72;96543.28;12764674;23;19920;-77
2022/03/30 09:24:27;;;;;;;;;;;;;;;10.08;56.02;96541.00;12797641;23;19920;-81
2022/03/30 09:29:48;;;;;;;;;;;;;;;10.20;55.48;96536.00;12816656;23;19940;-83
2022/03/30 09:35:24;;;;;;;;;;;;;;;10.31;55.46;96533.13;12813747;23;19920;-80
2022/03/30 09:40:49;;;;;;;;;;;;;;;10.28;55.87;96528.81;12851499;23;19927;-82
2022/03/30 09:46:11;;;;;;;;;;;;;;;10.36;54.94;96522.19;12824917;23;19920;-79
2022/03/30 09:51:35;;;;;;;;;;;;;;;10.52;54.87;96509.75;12806357;23;19920;-78
2022/03/30 09:56:56;;;;;;;;;;;;;;;10.64;55.42;96503.28;12808194;23;19924;-79
2022/03/30 10:02:16;;;;;;;;;;;;;;;10.88;54.96;96498.84;12833822;23;19920;-77
2022/03/30 10:07:37;;;;;;;;;;;;;;;11.09;54.24;96492.09;12810261;23;19944;-78
2022/03/30 10:12:58;;;;;;;;;;;;;;;11.27;54.35;96489.41;12824698;23;19943;-85
2022/03/30 10:18:19;;;;;;;;;;;;;;;11.28;54.22;96474.81;12806586;23;19920;-77
2022/03/30 10:23:58;;;;;;;;;;;;;;;11.48;53.81;96466.59;12810359;23;19928;-77
2022/03/30 10:29:20;;;;;;;;;;;;;;;11.59;53.82;96465.00;12823110;23;20374;-77
2022/03/30 10:34:47;;;;;;;;;;;;;;;11.66;53.17;96453.41;12831622;23;19920;-81
2022/03/30 10:40:14;;;;;;;;;;;;;;;11.55;53.48;96440.38;12813316;23;19924;-77
2022/03/30 10:45:42;;;;;;;;;;;;;;;11.29;55.25;96433.63;12806797;23;19920;-78
2022/03/30 10:51:15;;;;;;;;;;;;;;;11.35;55.48;96431.13;12784639;23;19974;-77
2022/03/30 10:56:36;;;;;;;;;;;;;;;11.55;54.44;96426.38;12784474;23;20415;-77
2022/03/30 11:02:11;;;;;;;;;;;;;;;11.53;54.53;96417.22;12828089;23;19939;-77
2022/03/30 11:07:32;;;;;;;;;;;;;;;11.20;54.95;96412.31;12742620;23;19955;-77
2022/03/30 11:13:11;;;;;;;;;;;;;;;11.36;55.27;96404.63;12721191;23;20316;-77
2022/03/30 11:18:56;;;;;;;;;;;;;;;11.67;54.68;96401.75;12703915;23;19971;-77
2022/03/30 11:24:18;;;;;;;;;;;;;;;11.48;54.58;96393.94;12723973;23;19920;-77
2022/03/30 11:29:42;;;;;;;;;;;;;;;11.23;55.54;96383.81;12708120;23;19960;-77
2022/03/30 11:35:04;;;;;;;;;;;;;;;11.17;55.81;96377.97;12722691;23;19928;-77
2022/03/30 11:40:25;;;;;;;;;;;;;;;11.10;55.46;96376.28;12726638;23;19912;-82
2022/03/30 11:45:49;;;;;;;;;;;;;;;10.88;57.00;96382.31;12774326;23;19955;-83
2022/03/30 11:51:10;;;;;;;;;;;;;;;10.78;57.44;96358.81;12795161;23;19920;-83
2022/03/30 11:56:31;;;;;;;;;;;;;;;10.86;57.22;96356.38;12797505;23;19928;-84
2022/03/30 12:01:53;;;;;;;;;;;;;;;10.91;57.29;96355.22;12757115;23;19928;-82
2022/03/30 12:07:15;;;;;;;;;;;;;;;10.80;57.78;96347.72;12758912;23;19978;-84
2022/03/30 12:12:36;;;;;;;;;;;;;;;10.69;58.48;96337.47;12778980;23;19921;-83
2022/03/30 12:17:57;;;;;;;;;;;;;;;10.56;59.19;96336.94;12778648;23;19916;-84
2022/03/30 12:23:18;;;;;;;;;;;;;;;10.23;58.77;96334.75;12779043;23;19911;-83
2022/03/30 12:28:39;;;;;;;;;;;;;;;9.99;60.13;96334.31;12758423;23;19905;-84
2022/03/30 12:34:07;;;;;;;;;;;;;;;9.89;60.89;96319.16;12758648;23;19920;-83
2022/03/30 12:39:39;;;;;;;;;;;;;;;9.94;61.99;96310.38;12820668;23;19924;-83
2022/03/30 12:45:00;;;;;;;;;;;;;;;9.72;60.04;96312.09;12779303;23;19911;-83
2022/03/30 12:50:26;;;;;;;;;;;;;;;9.48;60.91;96302.59;12758308;23;19928;-84
2022/03/30 12:55:48;;;;;;;;;;;;;;;9.38;62.18;96297.25;12758711;23;19905;-83
2022/03/30 13:01:29;;;;;;;;;;;;;;;9.34;64.12;96281.03;12776929;23;19904;-83
2022/03/30 13:07:06;;;;;;;;;;;;;;;9.43;63.86;96271.75;12778414;23;19921;-84
2022/03/30 13:12:38;;;;;;;;;;;;;;;9.51;63.16;96262.34;12799370;23;19912;-83
2022/03/30 13:18:00;;;;;;;;;;;;;;;9.44;63.89;96250.91;12758689;23;19904;-84
2022/03/30 13:23:32;;;;;;;;;;;;;;;9.45;64.04;96241.19;12799529;23;19904;-83
2022/03/30 13:28:54;;;;;;;;;;;;;;;9.35;64.08;96226.78;12778262;23;19924;-83
2022/03/30 13:34:17;;;;;;;;;;;;;;;9.31;64.09;96221.03;12757402;23;19925;-81
2022/03/30 13:39:41;;;;;;;;;;;;;;;9.32;64.38;96202.97;12777079;23;19944;-82
2022/03/30 13:45:05;;;;;;;;;;;;;;;9.33;64.30;96206.47;12756967;23;19911;-81
2022/03/30 13:50:29;;;;;;;;;;;;;;;9.27;64.90;96222.91;12817451;23;19912;-83
2022/03/30 13:55:54;;;;;;;;;;;;;;;9.14;64.79;96190.97;12798697;23;19936;-84
2022/03/30 14:01:20;;;;;;;;;;;;;;;8.96;65.02;96198.44;12777553;23;19920;-84
2022/03/30 14:06:42;;;;;;;;;;;;;;;8.88;65.29;96190.44;12737172;23;19929;-82
2022/03/30 14:12:04;;;;;;;;;;;;;;;8.85;65.25;96200.00;12773495;23;19920;-78
2022/03/30 14:17:24;;;;;;;;;;;;;;;8.84;66.31;96188.16;12726233;23;19921;-79
2022/03/30 14:22:47;;;;;;;;;;;;;;;8.68;66.72;96181.06;12732909;23;19936;-80
2022/03/30 14:28:09;;;;;;;;;;;;;;;8.70;67.22;96184.69;12748294;23;19971;-79
2022/03/30 14:33:30;;;;;;;;;;;;;;;8.71;67.26;96183.34;12722734;23;19943;-78
2022/03/30 14:38:51;;;;;;;;;;;;;;;8.81;66.96;96167.16;12741260;23;19967;-78
2022/03/30 14:44:12;;;;;;;;;;;;;;;8.97;66.74;96172.75;12721186;23;20228;-78
2022/03/30 14:49:33;;;;;;;;;;;;;;;9.10;66.55;96168.53;12759103;23;19921;-82
2022/03/30 14:54:59;;;;;;;;;;;;;;;9.09;66.95;96158.72;12755460;23;19935;-82
2022/03/30 15:00:20;;;;;;;;;;;;;;;9.02;66.83;96154.94;12732765;23;19969;-79
2022/03/30 15:05:44;;;;;;;;;;;;;;;8.99;67.55;96141.56;12691234;23;19920;-80
2022/03/30 15:11:05;;;;;;;;;;;;;;;8.99;66.54;96141.56;12725531;23;19995;-80
2022/03/30 15:16:31;;;;;;;;;;;;;;;8.90;67.40;96143.22;12738783;23;19920;-79
2022/03/30 15:21:55;;;;;;;;;;;;;;;8.83;67.28;96141.47;12734973;23;19905;-84
2022/03/30 15:27:16;;;;;;;;;;;;;;;8.72;67.29;96131.94;12713399;23;19928;-80
2022/03/30 15:32:37;;;;;;;;;;;;;;;8.68;68.22;96128.22;12712857;23;19921;-80
2022/03/30 15:37:58;;;;;;;;;;;;;;;8.70;67.92;96129.06;12746504;23;19943;-79
2022/03/30 15:43:20;;;;;;;;;;;;;;;8.74;68.14;96125.75;12765133;23;19947;-81
2022/03/30 15:48:40;;;;;;;;;;;;;;;8.66;67.80;96128.84;12825963;23;20217;-79
2022/03/30 15:54:03;;;;;;;;;;;;;;;8.53;68.22;96121.25;12842040;23;19928;-84
2022/03/30 15:59:25;;;;;;;;;;;;;;;8.51;68.11;96113.53;12832409;23;19972;-79
2022/03/30 16:04:46;;;;;;;;;;;;;;;8.44;69.41;96108.28;12809406;23;20347;-80
2022/03/30 16:16:12;;;;;;;;;;;;;;;8.36;68.24;96113.44;12901598;23;19920;-81
2022/03/30 16:21:34;;;;;;;;;;;;;;;8.30;68.69;96109.00;12931728;23;19920;-81
2022/03/30 16:26:58;;;;;;;;;;;;;;;8.23;68.60;96118.38;12857253;23;20259;-78
2022/03/30 16:32:20;;;;;;;;;;;;;;;8.24;68.92;96119.81;12893609;23;19947;-87
2022/03/30 16:37:42;;;;;;;;;;;;;;;8.20;69.19;96116.84;12878119;23;19911;-81
2022/03/30 16:43:03;;;;;;;;;;;;;;;8.18;68.93;96125.06;12922008;23;19927;-85
2022/03/30 16:48:30;;;;;;;;;;;;;;;8.11;68.90;96123.31;12904768;23;19920;-82
2022/03/30 16:53:52;;;;;;;;;;;;;;;8.07;68.79;96130.72;12879278;23;19920;-84
2022/03/30 16:59:13;;;;;;;;;;;;;;;8.00;69.71;96126.91;12929754;23;19926;-79
2022/03/30 17:04:33;;;;;;;;;;;;;;;7.96;69.50;96127.44;12837836;23;19920;-81
2022/03/30 17:09:57;;;;;;;;;;;;;;;7.97;68.99;96128.16;12832320;23;19952;-78
2022/03/30 17:15:18;;;;;;;;;;;;;;;7.96;69.49;96144.09;12785751;23;19920;-78
2022/03/30 17:20:39;;;;;;;;;;;;;;;7.96;69.34;96137.81;12788340;23;19920;-77
2022/03/30 17:26:00;;;;;;;;;;;;;;;7.97;69.59;96133.69;12762091;23;19998;-78
2022/03/30 17:31:21;;;;;;;;;;;;;;;7.94;69.29;96143.28;12821413;23;19904;-79
2022/03/30 17:36:42;;;;;;;;;;;;;;;7.92;69.66;96140.41;12795439;23;19920;-82
2022/03/30 17:42:03;;;;;;;;;;;;;;;7.98;70.11;96141.41;12804833;23;19920;-79
2022/03/30 17:47:24;;;;;;;;;;;;;;;7.95;69.47;96148.22;12827280;23;19936;-81
2022/03/30 17:52:45;;;;;;;;;;;;;;;7.90;69.86;96145.84;12879677;23;19924;-82
2022/03/30 17:58:31;;;;;;;;;;;;;;;7.86;69.94;96145.63;12848909;23;20638;31
2022/03/30 18:03:52;;;;;;;;;;;;;;;7.85;69.92;96146.97;12788987;23;19904;-82
2022/03/30 18:15:15;;;;;;;;;;;;;;;7.83;70.22;96157.97;12834510;23;19953;-79
2022/03/30 18:20:38;;;;;;;;;;;;;;;7.75;69.60;96159.00;12779012;23;19913;-81
2022/03/30 18:25:59;;;;;;;;;;;;;;;7.67;69.57;96166.88;12761142;23;19950;-78
2022/03/30 18:31:20;;;;;;;;;;;;;;;7.72;69.85;96163.00;12814102;23;19928;-82
2022/03/30 18:36:42;;;;;;;;;;;;;;;7.74;69.69;96179.78;12818620;23;19910;-80
2022/03/30 19:00:21;;;;;;;;;;;;;;;7.42;69.48;96200.94;12806077;23;19905;-81
2022/03/30 19:05:42;;;;;;;;;;;;;;;7.33;69.59;96201.09;12804062;23;19904;-80
2022/03/30 19:23:07;;;;;;;;;;;;;;;7.23;69.44;96200.56;12823256;23;20175;-82
2022/03/30 19:28:29;;;;;;;;;;;;;;;7.04;69.39;96205.09;12899209;23;19919;-80
2022/03/30 19:45:58;;;;;;;;;;;;;;;6.93;69.42;96216.94;12807900;23;19920;-82
2022/03/30 19:51:19;;;;;;;;;;;;;;;6.91;69.14;96208.50;12879583;23;19927;-83
2022/03/30 20:02:42;;;;;;;;;;;;;;;6.91;69.29;96216.84;12904592;23;19904;-81
2022/03/30 20:08:03;;;;;;;;;;;;;;;6.96;69.24;96212.97;12837229;23;19948;-80
2022/03/30 20:13:26;;;;;;;;;;;;;;;6.97;69.24;96217.19;12837758;23;19904;-80
2022/03/30 20:18:48;;;;;;;;;;;;;;;6.94;69.42;96218.38;12840776;23;19928;-81
2022/03/30 20:24:09;;;;;;;;;;;;;;;6.94;69.08;96223.22;12846834;23;19904;-81
2022/03/30 20:29:30;;;;;;;;;;;;;;;6.98;69.38;96226.22;12827117;23;19921;-81
2022/03/30 20:34:51;;;;;;;;;;;;;;;6.99;68.91;96222.84;12809193;23;20331;-80
2022/03/30 20:40:18;;;;;;;;;;;;;;;7.01;69.08;96227.78;12831339;23;20310;-81
2022/03/30 20:45:39;;;;;;;;;;;;;;;6.98;68.83;96221.41;12851750;23;19904;-81
2022/03/30 20:51:02;;;;;;;;;;;;;;;6.94;68.45;96226.72;12832233;23;19924;-80
2022/03/30 20:56:23;;;;;;;;;;;;;;;6.92;68.73;96209.94;12832413;23;19935;-79
2022/03/30 21:01:43;;;;;;;;;;;;;;;6.95;68.76;96208.75;12818651;23;19929;-81
2022/03/30 21:07:04;;;;;;;;;;;;;;;6.91;68.76;96214.06;12835492;23;19928;-80
2022/03/30 21:12:25;;;;;;;;;;;;;;;6.85;68.85;96206.13;12855320;23;19904;-81
2022/03/30 21:17:46;;;;;;;;;;;;;;;6.83;68.86;96214.31;12855111;23;19911;-80
2022/03/30 21:23:09;;;;;;;;;;;;;;;6.84;68.83;96204.66;12834374;23;19908;-80
2022/03/30 21:28:30;;;;;;;;;;;;;;;6.84;68.53;96206.72;12854354;23;19932;-78
2022/03/30 21:33:51;;;;;;;;;;;;;;;6.84;68.74;96207.44;12876976;23;19905;-80
2022/03/30 21:39:12;;;;;;;;;;;;;;;6.89;68.58;96205.63;12859971;23;19912;-81
2022/03/30 21:44:33;;;;;;;;;;;;;;;6.88;68.21;96213.22;12824329;23;19904;-79
2022/03/30 21:49:57;;;;;;;;;;;;;;;6.87;67.94;96214.56;12922373;23;19947;-79
2022/03/30 21:55:17;;;;;;;;;;;;;;;6.84;68.46;96226.84;12900912;23;19908;-80
2022/03/30 22:00:42;;;;;;;;;;;;;;;6.85;68.15;96216.47;12901486;23;19904;-79
2022/03/30 22:06:04;;;;;;;;;;;;;;;6.78;68.12;96218.19;12884049;23;19904;-79
2022/03/30 22:11:25;;;;;;;;;;;;;;;6.80;68.27;96209.28;12859576;23;19904;-78
2022/03/30 22:16:46;;;;;;;;;;;;;;;6.79;68.24;96213.38;12859958;23;19927;-79
2022/03/30 22:22:07;;;;;;;;;;;;;;;6.76;68.27;96211.81;12858389;23;19904;-79
2022/03/30 22:27:28;;;;;;;;;;;;;;;6.78;68.20;96212.66;12880206;23;19912;-80
2022/03/30 22:38:30;;;;;;;;;;;;;;;6.74;68.06;96208.91;12821670;23;19911;-80
2022/03/30 22:43:50;;;;;;;;;;;;;;;6.79;68.47;96207.81;12877479;23;19919;-79
2022/03/30 22:49:11;;;;;;;;;;;;;;;6.79;67.85;96191.91;12837805;23;19939;-80
2022/03/30 22:54:33;;;;;;;;;;;;;;;6.73;68.12;96196.38;12836981;23;19904;-80
2022/03/30 22:59:54;;;;;;;;;;;;;;;6.70;68.16;96187.22;12836646;23;19920;-79
2022/03/30 23:10:54;;;;;;;;;;;;;;;6.60;68.05;96192.19;12840469;23;19951;-79
2022/03/30 23:16:15;;;;;;;;;;;;;;;6.67;68.03;96196.78;12836823;23;19911;-81
2022/03/30 23:21:36;;;;;;;;;;;;;;;6.68;68.21;96192.66;12836734;23;19920;-80
2022/03/30 23:26:57;;;;;;;;;;;;;;;6.59;68.13;96202.56;12853772;23;19904;-80
2022/03/30 23:32:19;;;;;;;;;;;;;;;6.64;68.14;96195.19;12814390;23;19910;-79
2022/03/30 23:37:52;;;;;;;;;;;;;;;6.67;68.34;96196.03;12854317;23;19920;-80
2022/03/30 23:43:13;;;;;;;;;;;;;;;6.66;67.76;96197.34;12793810;23;19920;-78
2022/03/30 23:48:34;;;;;;;;;;;;;;;6.63;67.79;96190.25;12815053;23;19924;-80
2022/03/30 23:53:55;;;;;;;;;;;;;;;6.62;67.98;96200.63;12835220;23;19935;-80
2022/03/30 23:59:16;;;;;;;;;;;;;;;6.56;67.94;96203.78;12835260;23;19921;-81
